Time;durP1;ratioP1;P1;durP2;ratioP2;P2;SDS_P1;SDS_P2;PMS_P1;PMS_P2;Temp;Humidity;BMP_temperature;BMP_pressure;BME280_temperature;BME280_humidity;BME280_pressure;Samples;Min_cycle;Max_cycle;Signal;HPM_P1;HPM_P2
2022/10/23 00:00:09;;;;;;;16.58;6.65;;;11.20;99.90;;;;;;6040957;23;20014;-84
2022/10/23 00:02:35;;;;;;;15.40;6.25;;;11.20;99.90;;;;;;6065881;23;20091;-84
2022/10/23 00:05:00;;;;;;;19.13;6.70;;;11.20;99.90;;;;;;6041930;23;20045;-83
2022/10/23 00:07:26;;;;;;;16.63;7.20;;;11.20;99.90;;;;;;6042096;23;20014;-84
2022/10/23 00:09:52;;;;;;;18.98;7.30;;;11.20;99.90;;;;;;6042144;23;20022;-84
2022/10/23 00:12:17;;;;;;;20.67;7.63;;;11.20;99.90;;;;;;6041993;23;20349;-84
2022/10/23 00:14:43;;;;;;;18.25;7.45;;;11.30;99.90;;;;;;6065733;23;20018;-84
2022/10/23 00:17:11;;;;;;;18.67;7.25;;;11.20;99.90;;;;;;6042629;23;20340;-84
2022/10/23 00:19:36;;;;;;;16.33;7.47;;;11.20;99.90;;;;;;6042618;23;20037;-84
2022/10/23 00:22:02;;;;;;;20.45;8.05;;;11.20;99.90;;;;;;6043008;23;20297;-84
2022/10/23 00:24:28;;;;;;;19.77;7.60;;;11.20;99.90;;;;;;6042750;23;20539;-83
2022/10/23 00:26:54;;;;;;;14.02;7.00;;;11.20;99.90;;;;;;6043244;23;20018;-84
2022/10/23 00:29:19;;;;;;;21.10;8.02;;;11.20;99.90;;;;;;6063128;23;20436;-84
2022/10/23 00:31:45;;;;;;;16.23;7.47;;;11.20;99.90;;;;;;6042669;23;20346;-84
2022/10/23 00:34:11;;;;;;;18.48;7.30;;;11.10;99.90;;;;;;6066814;23;20022;-84
2022/10/23 00:36:37;;;;;;;20.02;9.50;;;11.10;99.90;;;;;;6043262;23;20014;-84
2022/10/23 00:39:04;;;;;;;31.48;13.45;;;11.10;99.90;;;;;;6043182;23;20025;-83
2022/10/23 00:41:31;;;;;;;24.55;13.38;;;11.10;99.90;;;;;;6066167;23;20014;-84
2022/10/23 00:43:57;;;;;;;23.23;10.68;;;11.60;99.90;;;;;;6042667;23;20015;-84
2022/10/23 00:46:22;;;;;;;17.73;8.52;;;11.00;99.90;;;;;;6066763;23;20073;-84
2022/10/23 00:48:48;;;;;;;14.77;7.30;;;11.00;99.90;;;;;;6065725;23;20053;-84
2022/10/23 00:51:14;;;;;;;16.45;7.28;;;11.00;99.90;;;;;;6041204;23;20054;-84
2022/10/23 00:53:40;;;;;;;16.25;7.47;;;10.90;99.90;;;;;;6066774;23;20018;-84
2022/10/23 00:56:06;;;;;;;17.92;7.28;;;10.90;99.90;;;;;;6041023;23;20251;-83
2022/10/23 00:58:32;;;;;;;15.75;7.28;;;10.90;99.90;;;;;;6018207;23;20596;-83
2022/10/23 01:00:57;;;;;;;18.55;7.18;;;11.70;99.90;;;;;;6065277;23;20010;-84
2022/10/23 01:03:26;;;;;;;20.05;8.82;;;10.90;99.90;;;;;;6042290;23;20393;-84
2022/10/23 01:05:54;;;;;;;21.58;9.27;;;10.90;99.90;;;;;;6041665;23;20018;-84
2022/10/23 01:08:32;;;;;;;17.15;9.07;;;10.90;99.90;;;;;;6041894;23;20081;-84
2022/10/23 01:11:08;;;;;;;17.50;9.20;;;10.90;99.90;;;;;;6066198;23;20011;-83
2022/10/23 01:13:43;;;;;;;23.48;10.10;;;10.90;99.90;;;;;;6042619;23;20018;-83
2022/10/23 01:16:36;;;;;;;21.30;10.30;;;10.90;99.90;;;;;;6041858;23;20018;-84
2022/10/23 01:19:15;;;;;;;;;;;11.10;99.90;;;;;;6029779;23;20037;-84
2022/10/23 01:21:54;;;;;;;18.83;9.98;;;10.90;99.90;;;;;;6066693;23;20232;-84
2022/10/23 01:24:35;;;;;;;21.30;10.65;;;10.90;99.90;;;;;;6065556;23;20046;-84
2022/10/23 01:27:21;;;;;;;18.73;10.85;;;10.90;99.90;;;;;;6066112;23;20338;-84
2022/10/23 01:30:11;;;;;;;20.55;10.55;;;11.00;99.90;;;;;;6066732;23;20439;-84
2022/10/23 01:33:21;;;;;;;20.48;10.93;;;11.00;99.90;;;;;;6065923;23;20014;-84
2022/10/23 01:35:52;;;;;;;21.15;11.60;;;11.00;99.90;;;;;;5979822;23;20023;-84
2022/10/23 01:38:27;;;;;;;21.88;11.82;;;11.00;99.90;;;;;;6042686;23;20022;-83
2022/10/23 01:41:09;;;;;;;20.25;12.07;;;10.90;99.90;;;;;;6065673;23;20100;-83
2022/10/23 01:43:50;;;;;;;22.23;12.32;;;11.00;99.90;;;;;;6066065;23;20061;-83
2022/10/23 01:46:16;;;;;;;18.38;11.45;;;11.00;99.90;;;;;;6044100;23;20046;-84
2022/10/23 01:48:47;;;;;;;19.90;11.82;;;11.00;99.90;;;;;;6068447;23;20082;-83
2022/10/23 01:51:15;;;;;;;21.30;11.60;;;11.00;99.90;;;;;;6043185;23;20468;-84
2022/10/23 01:53:43;;;;;;;21.52;11.90;;;10.90;99.90;;;;;;6044168;23;20015;-84
2022/10/23 01:56:11;;;;;;;22.65;12.93;;;11.00;99.90;;;;;;6067016;23;20019;-83
2022/10/23 01:58:41;;;;;;;20.63;11.68;;;10.90;99.90;;;;;;6067931;23;20010;-84
2022/10/23 02:01:09;;;;;;;19.60;12.30;;;11.00;99.90;;;;;;6067180;23;20089;-84
2022/10/23 02:03:36;;;;;;;23.27;11.75;;;10.90;99.90;;;;;;6044108;23;20093;-84
2022/10/23 02:06:02;;;;;;;18.63;11.27;;;10.90;99.90;;;;;;6043536;23;20175;-84
2022/10/23 02:08:27;;;;;;;16.83;10.77;;;10.90;99.90;;;;;;6066558;23;20026;-84
2022/10/23 02:11:07;;;;;;;17.45;10.20;;;10.70;99.90;;;;;;6042738;23;20081;-84
2022/10/23 02:13:37;;;;;;;17.75;9.70;;;10.80;99.90;;;;;;6067027;23;20018;-84
2022/10/23 02:16:14;;;;;;;16.33;10.35;;;10.70;99.90;;;;;;6042661;23;20025;-84
2022/10/23 02:18:53;;;;;;;18.27;10.00;;;10.70;99.90;;;;;;6066176;23;20475;-84
2022/10/23 02:21:36;;;;;;;16.38;9.35;;;10.60;99.90;;;;;;6067507;23;20475;-84
2022/10/23 02:24:08;;;;;;;18.48;9.73;;;10.60;99.90;;;;;;6044555;23;20077;-84
2022/10/23 02:26:38;;;;;;;15.63;9.05;;;10.50;99.90;;;;;;6067083;23;20018;-84
2022/10/23 02:29:19;;;;;;;16.73;9.70;;;10.50;99.90;;;;;;6066841;23;20018;-83
2022/10/23 02:31:44;;;;;;;16.85;9.45;;;10.50;99.90;;;;;;6065968;23;20123;-84
2022/10/23 02:34:10;;;;;;;21.02;10.73;;;10.50;99.90;;;;;;6068182;23;20018;-84
2022/10/23 02:36:36;;;;;;;17.95;9.82;;;10.40;99.90;;;;;;6066670;23;20114;-84
2022/10/23 02:39:03;;;;;;;22.38;10.20;;;10.40;99.90;;;;;;6020604;23;20086;-84
2022/10/23 02:42:04;;;;;;;15.57;9.38;;;10.40;99.90;;;;;;6066703;23;20085;-84
2022/10/23 02:44:41;;;;;;;14.43;8.95;;;10.40;99.90;;;;;;6035602;23;20014;-84
2022/10/23 02:47:38;;;;;;;18.30;8.80;;;10.30;99.90;;;;;;6043069;23;20065;-84
2022/10/23 02:50:22;;;;;;;16.05;9.30;;;10.30;99.90;;;;;;6067886;23;20014;-84
2022/10/23 02:53:40;;;;;;;17.58;9.57;;;10.30;99.90;;;;;;6043662;23;20014;-83
2022/10/23 02:56:19;;;;;;;19.60;10.52;;;10.30;99.90;;;;;;6024380;23;20037;-84
2022/10/23 02:59:06;;;;;;;16.67;10.35;;;10.20;99.90;;;;;;6067215;23;20018;-84
2022/10/23 03:01:47;;;;;;;17.85;10.63;;;10.20;99.90;;;;;;6043351;23;20029;-84
2022/10/23 03:04:15;;;;;;;19.40;10.70;;;10.30;99.90;;;;;;6044093;23;20015;-84
2022/10/23 03:06:41;;;;;;;18.70;10.27;;;10.70;99.90;;;;;;6043841;23;20010;-84
2022/10/23 03:09:08;;;;;;;21.13;10.10;;;10.20;99.90;;;;;;6066625;23;20084;-84
2022/10/23 03:11:34;;;;;;;17.15;9.98;;;10.20;99.90;;;;;;6066390;23;20018;-84
2022/10/23 03:13:59;;;;;;;18.35;11.23;;;10.20;99.90;;;;;;6043455;23;20138;-84
2022/10/23 03:16:25;;;;;;;19.85;11.38;;;10.50;99.90;;;;;;6043605;23;20112;-84
2022/10/23 03:18:51;;;;;;;19.17;11.23;;;10.30;99.90;;;;;;6043127;23;20448;-84
2022/10/23 03:21:17;;;;;;;17.58;11.43;;;10.70;99.90;;;;;;6043123;23;20098;-84
2022/10/23 03:23:42;;;;;;;19.60;11.25;;;10.30;99.90;;;;;;6043765;23;20340;-84
2022/10/23 03:26:08;;;;;;;17.88;11.10;;;10.30;99.90;;;;;;6043524;23;20014;-84
2022/10/23 03:28:34;;;;;;;19.52;10.63;;;10.30;99.90;;;;;;6067402;23;20018;-84
2022/10/23 03:31:03;;;;;;;18.08;11.75;;;10.30;99.90;;;;;;6043561;23;20026;-84
2022/10/23 03:33:30;;;;;;;17.88;10.43;;;10.30;99.90;;;;;;6067150;23;20014;-84
2022/10/23 03:35:56;;;;;;;17.83;10.02;;;10.40;99.90;;;;;;6042157;23;20029;-84
2022/10/23 03:38:21;;;;;;;17.00;10.57;;;10.40;99.90;;;;;;6067562;23;20345;-84
2022/10/23 03:40:47;;;;;;;20.05;12.23;;;10.40;99.90;;;;;;6065871;23;20014;-84
2022/10/23 03:43:13;;;;;;;20.33;11.95;;;10.40;99.90;;;;;;6066519;23;20183;-84
2022/10/23 03:45:39;;;;;;;20.00;12.05;;;10.40;99.90;;;;;;6067143;23;20357;-84
2022/10/23 03:48:06;;;;;;;19.13;11.60;;;11.50;99.90;;;;;;6043392;23;20018;-84
2022/10/23 03:50:32;;;;;;;16.42;10.70;;;10.50;99.90;;;;;;6066749;23;20021;-84
2022/10/23 03:52:57;;;;;;;18.30;9.98;;;10.60;99.90;;;;;;6043802;23;20089;-84
2022/10/23 03:55:25;;;;;;;17.55;11.15;;;10.50;99.90;;;;;;6019306;23;20050;-84
2022/10/23 03:57:52;;;;;;;19.95;10.70;;;10.40;99.90;;;;;;6044451;23;20089;-84
2022/10/23 04:00:18;;;;;;;15.57;10.57;;;10.40;99.90;;;;;;6041352;23;20034;-84
2022/10/23 04:02:44;;;;;;;21.02;10.52;;;10.40;99.90;;;;;;6066119;23;20015;-84
2022/10/23 04:05:10;;;;;;;15.10;9.65;;;10.40;99.90;;;;;;6065381;23;20018;-84
2022/10/23 04:07:36;;;;;;;16.95;9.73;;;10.30;99.90;;;;;;6043150;23;20300;-84
2022/10/23 04:10:02;;;;;;;15.05;10.20;;;10.30;99.90;;;;;;6042917;23;20052;-84
2022/10/23 04:12:27;;;;;;;18.00;10.68;;;10.30;99.90;;;;;;6042737;23;20397;-84
2022/10/23 04:14:53;;;;;;;18.77;10.60;;;10.20;99.90;;;;;;6042083;23;20085;-83
2022/10/23 04:17:19;;;;;;;18.23;10.82;;;11.10;99.90;;;;;;6041821;23;20014;-85
2022/10/23 04:19:44;;;;;;;17.52;10.63;;;10.80;99.90;;;;;;6042790;23;20022;-84
2022/10/23 04:22:10;;;;;;;17.70;10.80;;;10.20;99.90;;;;;;6042751;23;20473;-84
2022/10/23 04:24:36;;;;;;;17.75;10.70;;;10.10;99.90;;;;;;6042613;23;20329;-84
2022/10/23 04:27:01;;;;;;;19.77;11.55;;;10.20;99.90;;;;;;6066836;23;20132;-84
2022/10/23 04:29:30;;;;;;;20.60;11.57;;;10.10;99.90;;;;;;6066839;23;20457;-84
2022/10/23 04:31:56;;;;;;;20.70;11.32;;;10.10;99.90;;;;;;6042532;23;20018;-84
2022/10/23 04:34:21;;;;;;;19.63;11.48;;;10.10;99.90;;;;;;6042490;23;20486;-84
2022/10/23 04:36:47;;;;;;;20.58;11.38;;;10.10;99.90;;;;;;6042698;23;20025;-84
2022/10/23 04:39:13;;;;;;;17.63;10.77;;;10.10;99.90;;;;;;6042345;23;20109;-84
2022/10/23 04:41:39;;;;;;;20.88;11.50;;;10.10;99.90;;;;;;6066099;23;20045;-84
2022/10/23 04:44:05;;;;;;;16.45;11.40;;;10.10;99.90;;;;;;6041943;23;20021;-84
2022/10/23 04:46:31;;;;;;;22.88;12.15;;;10.00;99.90;;;;;;6040559;23;20018;-84
2022/10/23 04:48:56;;;;;;;19.40;10.93;;;10.00;99.90;;;;;;6043274;23;20018;-84
2022/10/23 04:51:22;;;;;;;16.27;11.15;;;10.00;99.90;;;;;;6066556;23;20456;-84
2022/10/23 04:53:48;;;;;;;19.77;11.23;;;10.00;99.90;;;;;;6066080;23;20277;-84
2022/10/23 04:56:14;;;;;;;16.92;10.30;;;10.30;99.90;;;;;;6065317;23;20010;-84
2022/10/23 04:58:41;;;;;;;17.02;10.95;;;10.00;99.90;;;;;;6065349;23;20353;-84
2022/10/23 05:01:09;;;;;;;19.35;11.02;;;10.80;99.90;;;;;;6042382;23;20386;-84
2022/10/23 05:03:35;;;;;;;19.55;11.48;;;10.00;99.90;;;;;;6042556;23;20025;-84
2022/10/23 05:06:01;;;;;;;18.73;11.27;;;9.90;99.90;;;;;;6065129;23;20014;-84
2022/10/23 05:08:27;;;;;;;19.52;11.52;;;9.90;99.90;;;;;;6066107;23;20061;-84
2022/10/23 05:10:53;;;;;;;18.95;10.60;;;9.90;99.90;;;;;;6041096;23;20074;-84
2022/10/23 05:13:19;;;;;;;22.63;13.32;;;10.20;99.90;;;;;;6043131;23;20015;-84
2022/10/23 05:15:49;;;;;;;17.27;11.18;;;9.90;99.90;;;;;;6041549;23;20089;-84
2022/10/23 05:18:45;;;;;;;23.17;11.90;;;10.00;99.90;;;;;;6067061;23;20014;-84
2022/10/23 05:21:19;;;;;;;18.88;10.77;;;10.20;99.90;;;;;;6062663;23;20333;-84
2022/10/23 05:23:45;;;;;;;21.48;12.15;;;10.10;99.90;;;;;;6069089;23;20015;-84
2022/10/23 05:26:11;;;;;;;20.48;12.35;;;10.10;99.90;;;;;;6043286;23;20077;-84
2022/10/23 05:28:37;;;;;;;24.60;13.05;;;10.10;99.90;;;;;;6068898;23;20018;-84
2022/10/23 05:31:03;;;;;;;23.23;12.43;;;10.10;99.90;;;;;;6044067;23;20014;-84
2022/10/23 05:33:30;;;;;;;22.55;12.50;;;10.10;99.90;;;;;;6068315;23;20014;-84
2022/10/23 05:35:57;;;;;;;23.00;12.45;;;11.30;99.90;;;;;;6043011;23;20018;-84
2022/10/23 05:38:23;;;;;;;24.38;12.20;;;10.20;99.90;;;;;;6068475;23;20015;-84
2022/10/23 05:40:51;;;;;;;19.90;10.95;;;10.20;99.90;;;;;;6042361;23;20010;-84
2022/10/23 05:43:16;;;;;;;21.48;11.05;;;10.10;99.90;;;;;;6044354;23;20014;-84
2022/10/23 05:45:42;;;;;;;21.40;11.38;;;10.10;99.90;;;;;;6043334;23;20188;-84
2022/10/23 05:48:08;;;;;;;22.52;12.15;;;10.20;99.90;;;;;;6092493;23;20045;-84
2022/10/23 05:50:37;;;;;;;21.10;12.10;;;10.10;99.90;;;;;;6043482;23;20045;-84
2022/10/23 05:53:02;;;;;;;19.58;11.85;;;10.20;99.90;;;;;;6068327;23;20022;-84
2022/10/23 05:55:28;;;;;;;19.15;11.20;;;10.10;99.90;;;;;;6043980;23;20111;-84
2022/10/23 05:57:54;;;;;;;21.98;12.00;;;10.10;99.90;;;;;;6044083;23;20322;-84
2022/10/23 06:00:20;;;;;;;19.50;11.98;;;10.10;99.90;;;;;;6067251;23;20007;-84
2022/10/23 06:02:45;;;;;;;20.35;11.80;;;10.40;99.90;;;;;;6067679;23;20068;-84
2022/10/23 06:05:11;;;;;;;27.98;12.13;;;10.10;99.90;;;;;;6043106;23;20037;-84
2022/10/23 06:07:37;;;;;;;18.38;11.48;;;10.10;99.90;;;;;;6067758;23;20014;-84
2022/10/23 06:10:04;;;;;;;21.52;12.00;;;10.10;99.90;;;;;;6043670;23;20057;-84
2022/10/23 06:12:31;;;;;;;22.85;12.77;;;10.20;99.90;;;;;;6066935;23;20405;-84
2022/10/23 06:14:57;;;;;;;20.90;11.43;;;10.10;99.90;;;;;;6067128;23;20019;-84
2022/10/23 06:17:22;;;;;;;22.58;12.57;;;10.10;99.90;;;;;;6067454;23;20453;-85
2022/10/23 06:19:48;;;;;;;19.75;11.93;;;10.10;99.90;;;;;;6042875;23;20014;-84
2022/10/23 06:22:14;;;;;;;20.52;11.95;;;10.10;99.90;;;;;;6067566;23;20021;-84
2022/10/23 06:24:39;;;;;;;21.60;11.95;;;10.10;99.90;;;;;;6042914;23;20025;-84
2022/10/23 06:27:05;;;;;;;18.35;10.90;;;10.00;99.90;;;;;;6042958;23;20018;-84
2022/10/23 06:29:31;;;;;;;18.20;11.40;;;10.00;99.90;;;;;;6038989;23;20018;-85
2022/10/23 06:31:57;;;;;;;20.60;10.60;;;10.20;99.90;;;;;;6064677;23;20137;-84
2022/10/23 06:34:22;;;;;;;19.73;11.25;;;10.00;99.90;;;;;;6067381;23;20018;-84
2022/10/23 06:36:48;;;;;;;19.40;11.43;;;10.00;99.90;;;;;;6067751;23;20019;-84
2022/10/23 06:39:14;;;;;;;19.17;11.48;;;10.00;99.90;;;;;;6043611;23;20021;-84
2022/10/23 06:41:40;;;;;;;19.60;11.10;;;10.00;99.90;;;;;;6043468;23;20022;-84
2022/10/23 06:44:09;;;;;;;22.88;11.38;;;10.00;99.90;;;;;;6044974;23;20453;-84
2022/10/23 06:46:35;;;;;;;20.98;11.52;;;10.10;99.90;;;;;;6043738;23;20373;-84
2022/10/23 06:49:00;;;;;;;20.90;12.18;;;10.10;99.90;;;;;;6068161;23;20021;-85
2022/10/23 06:51:28;;;;;;;24.77;12.82;;;10.20;99.90;;;;;;6043896;23;20022;-84
2022/10/23 06:53:55;;;;;;;22.60;12.25;;;10.20;99.90;;;;;;6068425;23;20096;-85
2022/10/23 06:56:21;;;;;;;25.73;12.88;;;10.20;99.90;;;;;;6043464;23;20090;-84
2022/10/23 06:58:47;;;;;;;22.02;11.88;;;10.30;99.90;;;;;;6044753;23;20730;-84
2022/10/23 07:01:15;;;;;;;22.38;12.38;;;10.30;99.90;;;;;;6065890;23;20014;-84
2022/10/23 07:03:41;;;;;;;25.08;12.93;;;10.30;99.90;;;;;;6068112;23;20338;-85
2022/10/23 07:06:08;;;;;;;23.10;13.10;;;10.40;99.90;;;;;;6067663;23;20507;-85
2022/10/23 07:08:34;;;;;;;21.83;12.48;;;10.60;99.90;;;;;;6066653;23;20026;-84
2022/10/23 07:11:05;;;;;;;22.70;12.80;;;10.40;99.90;;;;;;6042610;23;20019;-84
2022/10/23 07:13:31;;;;;;;20.42;11.82;;;10.50;99.90;;;;;;6066653;23;20014;-84
2022/10/23 07:15:57;;;;;;;21.58;12.77;;;10.50;99.90;;;;;;6065633;23;20073;-85
2022/10/23 07:18:23;;;;;;;21.05;13.00;;;10.80;99.90;;;;;;6044126;23;20030;-84
2022/10/23 07:20:55;;;;;;;32.20;14.73;;;10.50;99.90;;;;;;6043066;23;20019;-85
2022/10/23 07:23:21;;;;;;;21.33;12.35;;;10.60;99.90;;;;;;6040427;23;20437;-84
2022/10/23 07:25:47;;;;;;;22.00;12.85;;;10.60;99.90;;;;;;6043276;23;20018;-84
2022/10/23 07:28:12;;;;;;;25.75;13.30;;;10.70;99.90;;;;;;6043566;23;20449;-85
2022/10/23 07:30:39;;;;;;;26.52;12.73;;;10.70;99.90;;;;;;6042904;23;20385;-85
2022/10/23 07:33:05;;;;;;;23.80;13.15;;;10.70;99.90;;;;;;6042281;23;20018;-85
2022/10/23 07:35:31;;;;;;;22.80;12.85;;;10.80;99.90;;;;;;6040724;23;20105;-84
2022/10/23 07:37:59;;;;;;;21.35;12.50;;;10.80;99.90;;;;;;6064382;23;20049;-84
2022/10/23 07:40:24;;;;;;;21.27;12.20;;;10.90;99.90;;;;;;6066813;23;20081;-84
2022/10/23 07:42:50;;;;;;;23.25;12.88;;;10.90;99.90;;;;;;6043813;23;20014;-84
2022/10/23 07:45:16;;;;;;;22.75;12.95;;;11.00;99.90;;;;;;6042871;23;20102;-85
2022/10/23 07:47:42;;;;;;;20.88;11.93;;;11.00;99.90;;;;;;6042080;23;20018;-84
2022/10/23 07:50:08;;;;;;;22.98;12.43;;;11.10;99.90;;;;;;6066074;23;20018;-85
2022/10/23 07:52:35;;;;;;;20.52;12.27;;;11.10;99.90;;;;;;6039453;23;20025;-84
2022/10/23 07:55:01;;;;;;;22.77;12.65;;;11.10;99.90;;;;;;6066162;23;20365;-84
2022/10/23 07:57:26;;;;;;;27.10;12.75;;;11.20;99.90;;;;;;6042549;23;20491;-84
2022/10/23 07:59:53;;;;;;;21.30;12.05;;;11.20;99.90;;;;;;6066664;23;20015;-84
2022/10/23 08:02:19;;;;;;;22.50;12.48;;;11.20;99.90;;;;;;6038952;23;20782;-84
2022/10/23 08:04:48;;;;;;;21.08;12.02;;;11.30;99.90;;;;;;6040781;23;20038;-84
2022/10/23 08:07:14;;;;;;;20.98;11.98;;;11.30;99.90;;;;;;6041175;23;20056;-84
2022/10/23 08:09:39;;;;;;;21.05;12.20;;;11.30;99.90;;;;;;6042878;23;20018;-84
2022/10/23 08:12:05;;;;;;;21.15;11.15;;;11.40;99.90;;;;;;6043336;23;20018;-84
2022/10/23 08:14:31;;;;;;;19.65;11.38;;;11.50;99.90;;;;;;6065625;23;20464;-84
2022/10/23 08:16:56;;;;;;;21.95;12.43;;;11.80;99.90;;;;;;6043370;23;20074;-85
2022/10/23 08:19:22;;;;;;;19.73;11.88;;;11.50;99.90;;;;;;6043289;23;20011;-84
2022/10/23 08:21:48;;;;;;;20.45;12.00;;;11.50;99.90;;;;;;6067331;23;20014;-84
2022/10/23 08:24:14;;;;;;;20.30;11.40;;;11.60;99.90;;;;;;6042478;23;20010;-84
2022/10/23 08:26:40;;;;;;;18.25;10.45;;;11.70;99.90;;;;;;6019868;23;20014;-84
2022/10/23 08:29:05;;;;;;;20.13;11.45;;;11.70;99.90;;;;;;6043030;23;20018;-84
2022/10/23 08:31:31;;;;;;;19.17;11.13;;;11.70;99.90;;;;;;6043143;23;20353;-84
2022/10/23 08:33:57;;;;;;;20.98;11.30;;;11.80;99.90;;;;;;6066749;23;20178;-85
2022/10/23 08:36:26;;;;;;;21.58;11.60;;;11.80;99.90;;;;;;6065817;23;20061;-84
2022/10/23 08:38:54;;;;;;;23.85;11.40;;;11.90;99.90;;;;;;6066482;23;20046;-84
2022/10/23 08:41:36;;;;;;;17.73;11.27;;;12.00;99.90;;;;;;6066501;23;20097;-84
2022/10/23 08:44:20;;;;;;;21.60;10.70;;;12.00;99.90;;;;;;6067342;23;20018;-84
2022/10/23 08:47:07;;;;;;;22.20;11.13;;;13.20;99.90;;;;;;6067089;23;20014;-84
2022/10/23 08:49:35;;;;;;;18.38;10.85;;;12.10;99.90;;;;;;6042436;23;20220;-84
2022/10/23 08:52:10;;;;;;;19.58;11.40;;;12.20;99.90;;;;;;6042579;23;20042;-84
2022/10/23 08:54:51;;;;;;;21.05;11.13;;;12.30;99.90;;;;;;6068619;23;20029;-84
2022/10/23 08:57:21;;;;;;;18.67;10.68;;;12.30;99.90;;;;;;6069215;23;20180;-84
2022/10/23 08:59:53;;;;;;;22.10;10.98;;;12.40;99.90;;;;;;6044388;23;20078;-84
2022/10/23 09:02:26;;;;;;;17.20;10.40;;;12.40;99.90;;;;;;6044350;23;20015;-84
2022/10/23 09:04:53;;;;;;;;;;;12.50;99.90;;;;;;6057652;23;20070;-84
2022/10/23 09:07:48;;;;;;;16.30;9.93;;;12.70;99.90;;;;;;6044497;23;19988;-84
2022/10/23 09:10:23;;;;;;;15.35;9.68;;;12.60;99.90;;;;;;6022444;23;20025;-84
2022/10/23 09:12:49;;;;;;;18.05;10.25;;;12.60;99.90;;;;;;6065729;23;20018;-84
2022/10/23 09:15:27;;;;;;;16.42;10.07;;;12.70;99.90;;;;;;6042573;23;20025;-84
2022/10/23 09:18:10;;;;;;;19.83;10.43;;;12.80;99.90;;;;;;6066601;23;20143;-84
2022/10/23 09:20:36;;;;;;;20.52;10.73;;;12.90;99.90;;;;;;6067920;23;20089;-84
2022/10/23 09:23:20;;;;;;;22.65;10.82;;;12.90;99.90;;;;;;6045097;23;20045;-84
2022/10/23 09:25:49;;;;;;;17.13;9.13;;;13.00;99.90;;;;;;6067295;23;20018;-84
2022/10/23 09:28:23;;;;;;;20.10;9.95;;;13.10;99.90;;;;;;6068156;23;20014;-84
2022/10/23 09:30:50;;;;;;;21.08;10.02;;;13.10;99.90;;;;;;6044644;23;20025;-84
2022/10/23 09:33:29;;;;;;;18.45;10.18;;;13.20;99.90;;;;;;6044377;23;20010;-84
2022/10/23 09:35:57;;;;;;;18.65;9.88;;;13.30;99.90;;;;;;6041649;23;20014;-84
2022/10/23 09:38:35;;;;;;;19.13;10.25;;;13.40;99.90;;;;;;6041997;23;20209;-83
2022/10/23 09:41:06;;;;;;;17.45;10.15;;;13.50;99.90;;;;;;6068867;23;20010;-84
2022/10/23 09:43:32;;;;;;;18.75;10.18;;;13.60;99.90;;;;;;6068053;23;20349;-84
2022/10/23 09:46:05;;;;;;;16.83;9.82;;;13.70;99.90;;;;;;6043522;23;20405;-84
2022/10/23 09:48:32;;;;;;;17.38;9.02;;;13.70;99.90;;;;;;6044347;23;20018;-84
2022/10/23 09:50:57;;;;;;;16.65;9.38;;;13.80;99.90;;;;;;6044800;23;20050;-83
2022/10/23 09:53:30;;;;;;;16.48;8.63;;;13.90;99.90;;;;;;6042696;23;20082;-84
2022/10/23 09:56:00;;;;;;;15.93;8.48;;;14.00;99.90;;;;;;6064413;23;20022;-84
2022/10/23 09:58:33;;;;;;;16.17;8.23;;;14.00;99.90;;;;;;6091181;23;20132;-84
2022/10/23 10:00:58;;;;;;;;;;;14.10;99.90;;;;;;6068501;23;20015;-84
2022/10/23 10:03:24;;;;;;;16.50;8.23;;;14.10;99.90;;;;;;6043178;23;19951;-83
2022/10/23 10:05:59;;;;;;;14.75;7.70;;;14.10;99.90;;;;;;6018246;23;20014;-83
2022/10/23 10:08:35;;;;;;;15.75;7.97;;;14.20;99.90;;;;;;6043824;23;20093;-83
2022/10/23 10:11:01;;;;;;;15.45;8.20;;;14.00;99.90;;;;;;6067551;23;20021;-83
2022/10/23 10:13:32;;;;;;;17.10;7.90;;;14.20;99.90;;;;;;6068064;23;20356;-83
2022/10/23 10:16:22;;;;;;;15.55;8.13;;;14.30;99.90;;;;;;6038821;23;20080;-84
2022/10/23 10:19:02;;;;;;;14.02;7.10;;;14.40;99.90;;;;;;6040386;23;20019;-84
2022/10/23 10:21:39;;;;;;;13.30;6.63;;;14.40;99.90;;;;;;6041092;23;20025;-85
2022/10/23 10:24:18;;;;;;;14.98;7.28;;;14.40;99.90;;;;;;6039364;23;20022;-84
2022/10/23 10:26:59;;;;;;;14.88;7.53;;;14.50;99.90;;;;;;6061570;23;20014;-84
2022/10/23 10:29:57;;;;;;;16.58;7.63;;;14.50;99.90;;;;;;6039324;23;20022;-84
2022/10/23 10:32:40;;;;;;;15.02;7.13;;;14.60;99.90;;;;;;6064889;23;20026;-84
2022/10/23 10:35:25;;;;;;;;;;;14.60;99.90;;;;;;6039861;23;20018;-84
2022/10/23 10:38:12;;;;;;;13.13;7.25;;;14.70;99.90;;;;;;6065300;23;19913;-84
2022/10/23 10:40:44;;;;;;;15.55;6.97;;;14.80;99.90;;;;;;6065613;23;20348;-85
2022/10/23 10:43:39;;;;;;;18.45;7.10;;;14.80;99.90;;;;;;6040277;23;20018;-84
2022/10/23 10:46:20;;;;;;;13.05;6.25;;;14.90;99.90;;;;;;6040927;23;20061;-84
2022/10/23 10:48:52;;;;;;;15.07;6.90;;;15.00;99.90;;;;;;6061302;23;20077;-84
2022/10/23 10:51:52;;;;;;;17.27;6.57;;;15.10;99.90;;;;;;6038789;23;20018;-85
2022/10/23 10:54:41;;;;;;;15.85;6.90;;;15.10;99.90;;;;;;6062524;23;20023;-84
2022/10/23 10:57:26;;;;;;;13.85;6.30;;;15.20;99.90;;;;;;6064849;23;20460;-84
2022/10/23 10:59:54;;;;;;;13.88;6.68;;;15.20;99.90;;;;;;6043428;23;20025;-84
2022/10/23 11:02:28;;;;;;;15.23;6.95;;;15.30;99.90;;;;;;6066582;23;20438;-84
2022/10/23 11:05:28;;;;;;;11.48;6.30;;;15.30;99.90;;;;;;6042761;23;20411;-84
2022/10/23 11:08:03;;;;;;;14.07;6.20;;;15.40;99.90;;;;;;6090839;23;20017;-84
2022/10/23 11:10:29;;;;;;;14.75;6.00;;;15.40;99.90;;;;;;6043048;23;20025;-84
2022/10/23 11:12:56;;;;;;;12.00;5.68;;;15.40;99.90;;;;;;6042911;23;20016;-84
2022/10/23 11:15:27;;;;;;;13.13;5.93;;;15.50;99.90;;;;;;6041845;23;20093;-84
2022/10/23 11:18:00;;;;;;;13.20;5.13;;;15.50;99.90;;;;;;6066746;23;20480;-84
2022/10/23 11:20:31;;;;;;;12.57;5.38;;;15.50;99.90;;;;;;6042831;23;20015;-84
2022/10/23 11:23:24;;;;;;;12.88;5.55;;;15.60;99.90;;;;;;6067287;23;20046;-84
2022/10/23 11:25:50;;;;;;;;;;;15.60;99.90;;;;;;6066083;23;20014;-84
2022/10/23 11:28:56;;;;;;;10.85;5.13;;;15.70;99.90;;;;;;6066965;23;19924;-85
2022/10/23 11:31:47;;;;;;;13.35;5.70;;;15.70;99.90;;;;;;6066886;23;20057;-84
2022/10/23 11:34:47;;;;;;;14.32;5.70;;;15.70;99.90;;;;;;6066544;23;20077;-84
2022/10/23 11:37:18;;;;;;;12.30;5.07;;;15.70;99.90;;;;;;6042285;23;20026;-85
2022/10/23 11:40:16;;;;;;;14.45;5.53;;;15.70;99.90;;;;;;6042953;23;20022;-84
2022/10/23 11:42:42;;;;;;;12.02;5.40;;;15.70;99.90;;;;;;6043108;23;20014;-84
2022/10/23 11:45:47;;;;;;;15.00;5.88;;;16.00;99.90;;;;;;6066241;23;20659;-84
2022/10/23 11:48:12;;;;;;;13.00;5.25;;;15.70;99.90;;;;;;6042098;23;20396;-85
2022/10/23 11:50:44;;;;;;;11.25;4.97;;;15.70;99.90;;;;;;6042177;23;20022;-84
2022/10/23 11:53:29;;;;;;;11.77;5.28;;;15.70;99.90;;;;;;6043157;23;20014;-85
2022/10/23 11:56:10;;;;;;;11.95;5.72;;;15.70;99.90;;;;;;6042140;23;20019;-84
2022/10/23 11:58:53;;;;;;;14.75;5.53;;;15.70;99.90;;;;;;6043201;23;20015;-84
2022/10/23 12:01:41;;;;;;;12.20;5.03;;;15.70;99.90;;;;;;6064982;23;20021;-84
2022/10/23 12:04:13;;;;;;;13.15;5.32;;;15.60;99.90;;;;;;6066759;23;20021;-84
2022/10/23 12:06:48;;;;;;;11.95;5.90;;;15.60;99.90;;;;;;6042736;23;20150;-84
2022/10/23 12:09:28;;;;;;;12.02;5.38;;;15.60;99.90;;;;;;6066688;23;20018;-84
2022/10/23 12:12:39;;;;;;;9.82;5.40;;;15.60;99.90;;;;;;6041853;23;20014;-84
2022/10/23 12:15:10;;;;;;;11.02;5.22;;;15.60;99.90;;;;;;6049940;23;20018;-84
2022/10/23 12:17:38;;;;;;;14.43;5.55;;;15.60;99.90;;;;;;6063809;23;20021;-85
2022/10/23 12:20:07;;;;;;;13.05;5.03;;;15.60;99.90;;;;;;6041687;23;20082;-84
2022/10/23 12:23:11;;;;;;;14.25;5.70;;;15.60;99.90;;;;;;6040922;23;20011;-84
2022/10/23 12:25:55;;;;;;;12.30;5.05;;;15.60;99.90;;;;;;6065433;23;20089;-84
2022/10/23 12:28:54;;;;;;;14.43;5.55;;;15.60;99.90;;;;;;6064103;23;20349;-84
2022/10/23 12:31:23;;;;;;;12.65;5.28;;;15.60;99.90;;;;;;6064509;23;20018;-84
2022/10/23 12:33:51;;;;;;;11.45;4.90;;;15.70;99.90;;;;;;6064536;23;20041;-85
2022/10/23 12:36:48;;;;;;;13.27;5.40;;;15.70;99.90;;;;;;6064652;23;20089;-84
2022/10/23 12:39:26;;;;;;;12.80;4.80;;;15.70;99.90;;;;;;6039532;23;20037;-84
2022/10/23 12:41:52;;;;;;;15.07;5.43;;;15.80;99.90;;;;;;6063699;23;20094;-85
2022/10/23 12:44:18;;;;;;;12.18;4.97;;;15.80;99.90;;;;;;6039606;23;20057;-85
2022/10/23 12:46:49;;;;;;;11.88;4.65;;;15.80;99.90;;;;;;6040848;23;20444;-85
2022/10/23 12:49:18;;;;;;;9.73;5.07;;;15.90;99.90;;;;;;6041430;23;20499;-85
2022/10/23 12:51:43;;;;;;;13.55;4.82;;;15.90;99.90;;;;;;6039179;23;20041;-84
2022/10/23 12:54:18;;;;;;;13.57;4.80;;;15.90;99.90;;;;;;6040115;23;20464;-85